sensor_id;sensor_type;location;lat;lon;timestamp;P1;durP1;ratioP1;P2;durP2;ratioP2
18411;SDS011;27097;51.738;19.472;2022-11-15T00:00:07;33.63;;;19.40;;
18411;SDS011;27097;51.738;19.472;2022-11-15T00:02:36;33.05;;;19.02;;
18411;SDS011;27097;51.738;19.472;2022-11-15T00:05:03;37.40;;;19.40;;
18411;SDS011;27097;51.738;19.472;2022-11-15T00:07:30;32.58;;;18.55;;
18411;SDS011;27097;51.738;19.472;2022-11-15T00:09:57;33.10;;;19.52;;
18411;SDS011;27097;51.738;19.472;2022-11-15T00:12:25;32.70;;;19.30;;
18411;SDS011;27097;51.738;19.472;2022-11-15T00:14:53;31.50;;;18.33;;
18411;SDS011;27097;51.738;19.472;2022-11-15T00:17:20;32.78;;;18.73;;
18411;SDS011;27097;51.738;19.472;2022-11-15T00:19:47;32.92;;;18.30;;
18411;SDS011;27097;51.738;19.472;2022-11-15T00:22:14;32.20;;;18.17;;
18411;SDS011;27097;51.738;19.472;2022-11-15T00:24:41;33.75;;;19.23;;
18411;SDS011;27097;51.738;19.472;2022-11-15T00:27:08;32.58;;;18.20;;
18411;SDS011;27097;51.738;19.472;2022-11-15T00:29:36;30.38;;;18.73;;
18411;SDS011;27097;51.738;19.472;2022-11-15T00:32:03;31.52;;;18.40;;
18411;SDS011;27097;51.738;19.472;2022-11-15T00:34:30;29.83;;;17.85;;
18411;SDS011;27097;51.738;19.472;2022-11-15T00:36:57;30.83;;;17.77;;
18411;SDS011;27097;51.738;19.472;2022-11-15T00:39:24;32.30;;;18.83;;
18411;SDS011;27097;51.738;19.472;2022-11-15T00:41:51;31.90;;;17.70;;
18411;SDS011;27097;51.738;19.472;2022-11-15T00:44:18;32.10;;;18.00;;
18411;SDS011;27097;51.738;19.472;2022-11-15T00:46:46;30.08;;;18.00;;
18411;SDS011;27097;51.738;19.472;2022-11-15T00:49:13;29.30;;;17.92;;
18411;SDS011;27097;51.738;19.472;2022-11-15T00:51:40;30.00;;;17.88;;
18411;SDS011;27097;51.738;19.472;2022-11-15T00:54:07;29.20;;;17.27;;
18411;SDS011;27097;51.738;19.472;2022-11-15T00:56:34;28.70;;;17.33;;
18411;SDS011;27097;51.738;19.472;2022-11-15T00:59:01;28.77;;;17.52;;
18411;SDS011;27097;51.738;19.472;2022-11-15T01:01:28;29.02;;;17.38;;
18411;SDS011;27097;51.738;19.472;2022-11-15T01:03:56;27.70;;;16.88;;
18411;SDS011;27097;51.738;19.472;2022-11-15T01:06:23;28.48;;;16.77;;
18411;SDS011;27097;51.738;19.472;2022-11-15T01:08:50;32.35;;;18.23;;
18411;SDS011;27097;51.738;19.472;2022-11-15T01:11:17;31.77;;;17.70;;
18411;SDS011;27097;51.738;19.472;2022-11-15T01:13:44;30.77;;;17.92;;
18411;SDS011;27097;51.738;19.472;2022-11-15T01:16:12;27.38;;;16.63;;
18411;SDS011;27097;51.738;19.472;2022-11-15T01:18:41;27.73;;;17.23;;
18411;SDS011;27097;51.738;19.472;2022-11-15T01:21:11;28.30;;;17.48;;
18411;SDS011;27097;51.738;19.472;2022-11-15T01:23:38;28.40;;;16.90;;
18411;SDS011;27097;51.738;19.472;2022-11-15T01:26:07;29.13;;;16.35;;
18411;SDS011;27097;51.738;19.472;2022-11-15T01:28:37;26.42;;;15.90;;
18411;SDS011;27097;51.738;19.472;2022-11-15T01:31:06;30.00;;;17.30;;
18411;SDS011;27097;51.738;19.472;2022-11-15T01:33:35;31.73;;;17.02;;
18411;SDS011;27097;51.738;19.472;2022-11-15T01:36:03;30.35;;;17.15;;
18411;SDS011;27097;51.738;19.472;2022-11-15T01:38:32;27.90;;;17.00;;
18411;SDS011;27097;51.738;19.472;2022-11-15T01:40:59;24.67;;;15.43;;
18411;SDS011;27097;51.738;19.472;2022-11-15T01:43:27;28.98;;;17.50;;
18411;SDS011;27097;51.738;19.472;2022-11-15T01:45:56;30.40;;;16.75;;
18411;SDS011;27097;51.738;19.472;2022-11-15T01:48:30;26.42;;;16.08;;
18411;SDS011;27097;51.738;19.472;2022-11-15T01:50:59;28.20;;;17.20;;
18411;SDS011;27097;51.738;19.472;2022-11-15T01:53:29;26.83;;;15.65;;
18411;SDS011;27097;51.738;19.472;2022-11-15T01:55:59;26.65;;;16.13;;
18411;SDS011;27097;51.738;19.472;2022-11-15T01:58:29;25.98;;;16.55;;
18411;SDS011;27097;51.738;19.472;2022-11-15T02:00:56;30.10;;;16.38;;
18411;SDS011;27097;51.738;19.472;2022-11-15T02:03:25;26.65;;;16.05;;
18411;SDS011;27097;51.738;19.472;2022-11-15T02:05:56;24.40;;;15.43;;
18411;SDS011;27097;51.738;19.472;2022-11-15T02:08:23;26.63;;;16.08;;
18411;SDS011;27097;51.738;19.472;2022-11-15T02:10:50;26.75;;;14.75;;
18411;SDS011;27097;51.738;19.472;2022-11-15T02:13:19;25.67;;;15.02;;
18411;SDS011;27097;51.738;19.472;2022-11-15T02:15:47;25.55;;;15.75;;
18411;SDS011;27097;51.738;19.472;2022-11-15T02:18:23;26.55;;;15.23;;
18411;SDS011;27097;51.738;19.472;2022-11-15T02:20:58;24.55;;;14.85;;
18411;SDS011;27097;51.738;19.472;2022-11-15T02:26:39;27.73;;;16.73;;
18411;SDS011;27097;51.738;19.472;2022-11-15T02:29:20;27.08;;;15.43;;
18411;SDS011;27097;51.738;19.472;2022-11-15T02:32:01;27.08;;;15.30;;
18411;SDS011;27097;51.738;19.472;2022-11-15T02:34:33;25.75;;;14.82;;
18411;SDS011;27097;51.738;19.472;2022-11-15T02:37:10;30.42;;;15.13;;
18411;SDS011;27097;51.738;19.472;2022-11-15T02:39:43;26.80;;;15.65;;
18411;SDS011;27097;51.738;19.472;2022-11-15T02:42:17;26.08;;;15.35;;
18411;SDS011;27097;51.738;19.472;2022-11-15T02:45:07;28.40;;;15.60;;
18411;SDS011;27097;51.738;19.472;2022-11-15T02:47:41;23.90;;;14.80;;
18411;SDS011;27097;51.738;19.472;2022-11-15T02:50:11;23.35;;;14.93;;
18411;SDS011;27097;51.738;19.472;2022-11-15T02:52:41;22.10;;;14.48;;
18411;SDS011;27097;51.738;19.472;2022-11-15T02:55:28;23.80;;;14.05;;
18411;SDS011;27097;51.738;19.472;2022-11-15T02:58:01;22.20;;;14.38;;
18411;SDS011;27097;51.738;19.472;2022-11-15T03:00:44;23.33;;;14.48;;
18411;SDS011;27097;51.738;19.472;2022-11-15T03:03:24;26.63;;;14.55;;
18411;SDS011;27097;51.738;19.472;2022-11-15T03:06:04;23.98;;;14.02;;
18411;SDS011;27097;51.738;19.472;2022-11-15T03:08:43;22.90;;;13.98;;
18411;SDS011;27097;51.738;19.472;2022-11-15T03:11:16;22.80;;;13.68;;
18411;SDS011;27097;51.738;19.472;2022-11-15T03:13:46;23.05;;;13.68;;
18411;SDS011;27097;51.738;19.472;2022-11-15T03:16:19;27.10;;;14.27;;
18411;SDS011;27097;51.738;19.472;2022-11-15T03:18:54;22.02;;;13.27;;
18411;SDS011;27097;51.738;19.472;2022-11-15T03:21:25;25.00;;;13.57;;
18411;SDS011;27097;51.738;19.472;2022-11-15T03:23:54;23.58;;;13.13;;
18411;SDS011;27097;51.738;19.472;2022-11-15T03:26:24;28.27;;;14.23;;
18411;SDS011;27097;51.738;19.472;2022-11-15T03:28:53;24.08;;;13.50;;
18411;SDS011;27097;51.738;19.472;2022-11-15T03:31:23;25.25;;;13.20;;
18411;SDS011;27097;51.738;19.472;2022-11-15T03:34:13;19.77;;;12.52;;
18411;SDS011;27097;51.738;19.472;2022-11-15T03:36:47;25.67;;;13.95;;
18411;SDS011;27097;51.738;19.472;2022-11-15T03:39:15;20.40;;;12.73;;
18411;SDS011;27097;51.738;19.472;2022-11-15T03:41:43;32.00;;;13.50;;
18411;SDS011;27097;51.738;19.472;2022-11-15T03:44:16;21.00;;;13.35;;
18411;SDS011;27097;51.738;19.472;2022-11-15T03:46:55;25.15;;;13.48;;
18411;SDS011;27097;51.738;19.472;2022-11-15T03:49:30;22.15;;;13.50;;
18411;SDS011;27097;51.738;19.472;2022-11-15T03:51:59;20.02;;;12.88;;
18411;SDS011;27097;51.738;19.472;2022-11-15T03:54:27;22.42;;;11.95;;
18411;SDS011;27097;51.738;19.472;2022-11-15T03:56:55;20.65;;;12.70;;
18411;SDS011;27097;51.738;19.472;2022-11-15T03:59:22;21.45;;;12.57;;
18411;SDS011;27097;51.738;19.472;2022-11-15T04:01:49;20.75;;;13.05;;
18411;SDS011;27097;51.738;19.472;2022-11-15T04:04:15;20.40;;;12.95;;
18411;SDS011;27097;51.738;19.472;2022-11-15T04:06:44;22.63;;;13.00;;
18411;SDS011;27097;51.738;19.472;2022-11-15T04:09:11;21.80;;;12.90;;
18411;SDS011;27097;51.738;19.472;2022-11-15T04:11:38;24.02;;;13.32;;
18411;SDS011;27097;51.738;19.472;2022-11-15T04:14:05;23.00;;;12.80;;
18411;SDS011;27097;51.738;19.472;2022-11-15T04:16:31;20.80;;;12.52;;
18411;SDS011;27097;51.738;19.472;2022-11-15T04:18:58;20.25;;;12.50;;
18411;SDS011;27097;51.738;19.472;2022-11-15T04:21:44;20.52;;;12.68;;
18411;SDS011;27097;51.738;19.472;2022-11-15T04:24:29;18.25;;;11.60;;
18411;SDS011;27097;51.738;19.472;2022-11-15T04:26:56;21.38;;;12.20;;
18411;SDS011;27097;51.738;19.472;2022-11-15T04:29:22;18.75;;;12.57;;
18411;SDS011;27097;51.738;19.472;2022-11-15T04:32:01;20.95;;;11.70;;
18411;SDS011;27097;51.738;19.472;2022-11-15T04:34:29;22.63;;;12.85;;
18411;SDS011;27097;51.738;19.472;2022-11-15T04:36:57;19.42;;;12.25;;
18411;SDS011;27097;51.738;19.472;2022-11-15T04:39:41;19.95;;;11.80;;
18411;SDS011;27097;51.738;19.472;2022-11-15T04:42:08;21.08;;;12.57;;
18411;SDS011;27097;51.738;19.472;2022-11-15T04:44:36;19.90;;;12.25;;
18411;SDS011;27097;51.738;19.472;2022-11-15T04:47:03;21.83;;;12.05;;
18411;SDS011;27097;51.738;19.472;2022-11-15T04:49:30;19.98;;;11.77;;
18411;SDS011;27097;51.738;19.472;2022-11-15T04:51:59;19.00;;;12.32;;
18411;SDS011;27097;51.738;19.472;2022-11-15T04:54:26;21.55;;;12.18;;
18411;SDS011;27097;51.738;19.472;2022-11-15T04:56:53;18.90;;;11.98;;
18411;SDS011;27097;51.738;19.472;2022-11-15T04:59:20;21.67;;;11.95;;
18411;SDS011;27097;51.738;19.472;2022-11-15T05:01:46;20.33;;;12.38;;
18411;SDS011;27097;51.738;19.472;2022-11-15T05:04:13;20.23;;;11.35;;
18411;SDS011;27097;51.738;19.472;2022-11-15T05:06:46;21.60;;;12.50;;
18411;SDS011;27097;51.738;19.472;2022-11-15T05:09:15;18.35;;;11.68;;
18411;SDS011;27097;51.738;19.472;2022-11-15T05:11:42;19.65;;;11.50;;
18411;SDS011;27097;51.738;19.472;2022-11-15T05:14:09;18.45;;;11.70;;
18411;SDS011;27097;51.738;19.472;2022-11-15T05:16:37;17.92;;;11.23;;
18411;SDS011;27097;51.738;19.472;2022-11-15T05:19:04;21.45;;;11.82;;
18411;SDS011;27097;51.738;19.472;2022-11-15T05:21:32;19.27;;;11.43;;
18411;SDS011;27097;51.738;19.472;2022-11-15T05:23:59;16.88;;;10.52;;
18411;SDS011;27097;51.738;19.472;2022-11-15T05:26:28;20.42;;;11.20;;
18411;SDS011;27097;51.738;19.472;2022-11-15T05:28:55;17.20;;;11.13;;
18411;SDS011;27097;51.738;19.472;2022-11-15T05:31:23;21.35;;;10.82;;
18411;SDS011;27097;51.738;19.472;2022-11-15T05:33:51;19.98;;;12.23;;
18411;SDS011;27097;51.738;19.472;2022-11-15T05:36:21;19.85;;;11.73;;
18411;SDS011;27097;51.738;19.472;2022-11-15T05:38:54;17.65;;;11.10;;
18411;SDS011;27097;51.738;19.472;2022-11-15T05:41:22;16.02;;;11.05;;
18411;SDS011;27097;51.738;19.472;2022-11-15T05:43:55;17.10;;;10.65;;
18411;SDS011;27097;51.738;19.472;2022-11-15T05:46:22;18.05;;;10.95;;
18411;SDS011;27097;51.738;19.472;2022-11-15T05:48:50;15.70;;;9.85;;
18411;SDS011;27097;51.738;19.472;2022-11-15T05:51:19;19.33;;;11.13;;
18411;SDS011;27097;51.738;19.472;2022-11-15T05:53:47;17.77;;;11.07;;
18411;SDS011;27097;51.738;19.472;2022-11-15T05:56:14;16.48;;;10.70;;
18411;SDS011;27097;51.738;19.472;2022-11-15T05:58:42;18.45;;;10.90;;
18411;SDS011;27097;51.738;19.472;2022-11-15T06:01:11;20.02;;;11.20;;
18411;SDS011;27097;51.738;19.472;2022-11-15T06:03:38;17.20;;;10.77;;
18411;SDS011;27097;51.738;19.472;2022-11-15T06:06:05;18.23;;;11.10;;
18411;SDS011;27097;51.738;19.472;2022-11-15T06:08:32;17.33;;;10.18;;
18411;SDS011;27097;51.738;19.472;2022-11-15T06:11:02;17.13;;;10.63;;
18411;SDS011;27097;51.738;19.472;2022-11-15T06:13:30;16.02;;;10.98;;
18411;SDS011;27097;51.738;19.472;2022-11-15T06:15:57;19.15;;;11.63;;
18411;SDS011;27097;51.738;19.472;2022-11-15T06:18:26;19.45;;;11.20;;
18411;SDS011;27097;51.738;19.472;2022-11-15T06:20:53;17.40;;;11.02;;
18411;SDS011;27097;51.738;19.472;2022-11-15T06:23:20;19.08;;;11.35;;
18411;SDS011;27097;51.738;19.472;2022-11-15T06:25:47;19.17;;;11.00;;
18411;SDS011;27097;51.738;19.472;2022-11-15T06:28:18;18.02;;;11.20;;
18411;SDS011;27097;51.738;19.472;2022-11-15T06:30:45;17.90;;;11.27;;
18411;SDS011;27097;51.738;19.472;2022-11-15T06:33:12;15.75;;;10.15;;
18411;SDS011;27097;51.738;19.472;2022-11-15T06:35:41;18.73;;;10.63;;
18411;SDS011;27097;51.738;19.472;2022-11-15T06:38:09;21.52;;;11.65;;
18411;SDS011;27097;51.738;19.472;2022-11-15T06:40:36;21.67;;;11.00;;
18411;SDS011;27097;51.738;19.472;2022-11-15T06:43:05;21.38;;;10.95;;
18411;SDS011;27097;51.738;19.472;2022-11-15T06:45:32;26.02;;;11.10;;
18411;SDS011;27097;51.738;19.472;2022-11-15T06:47:59;21.52;;;11.43;;
18411;SDS011;27097;51.738;19.472;2022-11-15T06:50:28;29.00;;;12.10;;
18411;SDS011;27097;51.738;19.472;2022-11-15T06:52:58;40.22;;;12.05;;
18411;SDS011;27097;51.738;19.472;2022-11-15T06:55:28;30.75;;;12.10;;
18411;SDS011;27097;51.738;19.472;2022-11-15T06:57:55;33.08;;;12.55;;
18411;SDS011;27097;51.738;19.472;2022-11-15T07:00:22;29.23;;;11.77;;
18411;SDS011;27097;51.738;19.472;2022-11-15T07:02:49;34.92;;;11.95;;
18411;SDS011;27097;51.738;19.472;2022-11-15T07:05:28;31.60;;;12.15;;
18411;SDS011;27097;51.738;19.472;2022-11-15T07:08:00;37.17;;;12.38;;
18411;SDS011;27097;51.738;19.472;2022-11-15T07:10:28;32.40;;;12.85;;
18411;SDS011;27097;51.738;19.472;2022-11-15T07:12:59;31.45;;;12.60;;
18411;SDS011;27097;51.738;19.472;2022-11-15T07:15:26;26.90;;;12.35;;
18411;SDS011;27097;51.738;19.472;2022-11-15T07:17:55;29.02;;;13.18;;
18411;SDS011;27097;51.738;19.472;2022-11-15T07:20:22;24.42;;;11.93;;
18411;SDS011;27097;51.738;19.472;2022-11-15T07:22:49;39.05;;;12.52;;
18411;SDS011;27097;51.738;19.472;2022-11-15T07:25:17;30.52;;;13.38;;
18411;SDS011;27097;51.738;19.472;2022-11-15T07:27:44;29.30;;;12.00;;
18411;SDS011;27097;51.738;19.472;2022-11-15T07:30:20;28.42;;;12.60;;
18411;SDS011;27097;51.738;19.472;2022-11-15T07:32:51;28.42;;;11.73;;
18411;SDS011;27097;51.738;19.472;2022-11-15T07:35:19;31.55;;;12.38;;
18411;SDS011;27097;51.738;19.472;2022-11-15T07:37:52;26.35;;;13.15;;
18411;SDS011;27097;51.738;19.472;2022-11-15T07:40:21;26.35;;;11.90;;
18411;SDS011;27097;51.738;19.472;2022-11-15T07:42:49;31.15;;;12.38;;
18411;SDS011;27097;51.738;19.472;2022-11-15T07:45:18;29.20;;;11.40;;
18411;SDS011;27097;51.738;19.472;2022-11-15T07:47:45;29.65;;;11.38;;
18411;SDS011;27097;51.738;19.472;2022-11-15T07:50:13;24.67;;;11.57;;
18411;SDS011;27097;51.738;19.472;2022-11-15T07:52:40;29.05;;;13.27;;
18411;SDS011;27097;51.738;19.472;2022-11-15T07:55:07;32.03;;;11.70;;
18411;SDS011;27097;51.738;19.472;2022-11-15T07:57:36;26.55;;;13.18;;
18411;SDS011;27097;51.738;19.472;2022-11-15T08:00:04;26.40;;;12.30;;
18411;SDS011;27097;51.738;19.472;2022-11-15T08:02:31;27.20;;;12.23;;
18411;SDS011;27097;51.738;19.472;2022-11-15T08:04:58;25.58;;;12.05;;
18411;SDS011;27097;51.738;19.472;2022-11-15T08:07:27;27.98;;;12.93;;
18411;SDS011;27097;51.738;19.472;2022-11-15T08:09:56;24.13;;;11.85;;
18411;SDS011;27097;51.738;19.472;2022-11-15T08:12:23;26.75;;;12.73;;
18411;SDS011;27097;51.738;19.472;2022-11-15T08:14:51;30.17;;;13.07;;
18411;SDS011;27097;51.738;19.472;2022-11-15T08:17:18;24.42;;;12.27;;
18411;SDS011;27097;51.738;19.472;2022-11-15T08:19:45;24.85;;;11.77;;
18411;SDS011;27097;51.738;19.472;2022-11-15T08:22:13;25.92;;;12.18;;
18411;SDS011;27097;51.738;19.472;2022-11-15T08:24:40;23.45;;;12.43;;
18411;SDS011;27097;51.738;19.472;2022-11-15T08:27:07;28.60;;;12.60;;
18411;SDS011;27097;51.738;19.472;2022-11-15T08:29:39;30.35;;;13.00;;
18411;SDS011;27097;51.738;19.472;2022-11-15T08:32:08;24.55;;;11.98;;
18411;SDS011;27097;51.738;19.472;2022-11-15T08:34:36;23.10;;;12.20;;
18411;SDS011;27097;51.738;19.472;2022-11-15T08:37:03;27.10;;;12.35;;
18411;SDS011;27097;51.738;19.472;2022-11-15T08:39:30;24.45;;;12.32;;
18411;SDS011;27097;51.738;19.472;2022-11-15T08:41:57;27.90;;;12.32;;
18411;SDS011;27097;51.738;19.472;2022-11-15T08:44:24;26.58;;;12.40;;
18411;SDS011;27097;51.738;19.472;2022-11-15T08:46:51;26.23;;;12.60;;
18411;SDS011;27097;51.738;19.472;2022-11-15T08:49:20;22.65;;;13.07;;
18411;SDS011;27097;51.738;19.472;2022-11-15T08:51:46;27.98;;;12.82;;
18411;SDS011;27097;51.738;19.472;2022-11-15T08:54:13;22.60;;;12.23;;
18411;SDS011;27097;51.738;19.472;2022-11-15T08:56:40;25.75;;;11.80;;
18411;SDS011;27097;51.738;19.472;2022-11-15T08:59:07;22.20;;;12.68;;
18411;SDS011;27097;51.738;19.472;2022-11-15T09:01:34;20.83;;;11.75;;
18411;SDS011;27097;51.738;19.472;2022-11-15T09:04:01;23.00;;;12.57;;
18411;SDS011;27097;51.738;19.472;2022-11-15T09:06:30;21.13;;;11.90;;
18411;SDS011;27097;51.738;19.472;2022-11-15T09:08:57;23.20;;;12.02;;
18411;SDS011;27097;51.738;19.472;2022-11-15T09:11:24;24.23;;;11.85;;
18411;SDS011;27097;51.738;19.472;2022-11-15T09:13:51;24.33;;;11.43;;
18411;SDS011;27097;51.738;19.472;2022-11-15T09:16:18;24.40;;;11.68;;
18411;SDS011;27097;51.738;19.472;2022-11-15T09:18:45;22.67;;;10.75;;
18411;SDS011;27097;51.738;19.472;2022-11-15T09:21:12;22.70;;;11.20;;
18411;SDS011;27097;51.738;19.472;2022-11-15T09:23:41;22.35;;;11.30;;
18411;SDS011;27097;51.738;19.472;2022-11-15T09:26:08;25.95;;;11.27;;
18411;SDS011;27097;51.738;19.472;2022-11-15T09:28:35;19.60;;;10.93;;
18411;SDS011;27097;51.738;19.472;2022-11-15T09:31:04;19.30;;;11.00;;
18411;SDS011;27097;51.738;19.472;2022-11-15T09:33:32;24.33;;;11.32;;
18411;SDS011;27097;51.738;19.472;2022-11-15T09:35:59;26.05;;;11.20;;
18411;SDS011;27097;51.738;19.472;2022-11-15T09:38:29;28.77;;;11.18;;
18411;SDS011;27097;51.738;19.472;2022-11-15T09:41:05;18.00;;;10.45;;
18411;SDS011;27097;51.738;19.472;2022-11-15T09:43:45;18.30;;;10.27;;
18411;SDS011;27097;51.738;19.472;2022-11-15T09:46:19;17.20;;;10.32;;
18411;SDS011;27097;51.738;19.472;2022-11-15T09:48:52;19.50;;;10.57;;
18411;SDS011;27097;51.738;19.472;2022-11-15T09:51:23;23.25;;;10.05;;
18411;SDS011;27097;51.738;19.472;2022-11-15T09:53:56;20.70;;;10.07;;
18411;SDS011;27097;51.738;19.472;2022-11-15T09:56:32;17.85;;;9.82;;
18411;SDS011;27097;51.738;19.472;2022-11-15T09:59:12;22.27;;;10.35;;
18411;SDS011;27097;51.738;19.472;2022-11-15T10:02:01;18.27;;;10.07;;
18411;SDS011;27097;51.738;19.472;2022-11-15T10:04:44;18.55;;;9.43;;
18411;SDS011;27097;51.738;19.472;2022-11-15T10:07:13;20.83;;;9.73;;
18411;SDS011;27097;51.738;19.472;2022-11-15T10:09:46;16.95;;;9.88;;
18411;SDS011;27097;51.738;19.472;2022-11-15T10:12:19;23.23;;;10.43;;
18411;SDS011;27097;51.738;19.472;2022-11-15T10:14:46;20.48;;;9.27;;
18411;SDS011;27097;51.738;19.472;2022-11-15T10:17:29;22.30;;;9.48;;
18411;SDS011;27097;51.738;19.472;2022-11-15T10:20:12;22.85;;;10.25;;
18411;SDS011;27097;51.738;19.472;2022-11-15T10:22:44;18.92;;;9.80;;
18411;SDS011;27097;51.738;19.472;2022-11-15T10:25:15;21.70;;;9.52;;
18411;SDS011;27097;51.738;19.472;2022-11-15T10:27:52;19.77;;;9.60;;
18411;SDS011;27097;51.738;19.472;2022-11-15T10:30:23;22.35;;;10.23;;
18411;SDS011;27097;51.738;19.472;2022-11-15T10:32:55;21.65;;;10.27;;
18411;SDS011;27097;51.738;19.472;2022-11-15T10:35:23;28.55;;;10.25;;
18411;SDS011;27097;51.738;19.472;2022-11-15T10:37:51;25.90;;;10.10;;
18411;SDS011;27097;51.738;19.472;2022-11-15T10:40:30;19.48;;;9.90;;
18411;SDS011;27097;51.738;19.472;2022-11-15T10:43:05;21.50;;;10.13;;
18411;SDS011;27097;51.738;19.472;2022-11-15T10:45:39;25.90;;;10.23;;
18411;SDS011;27097;51.738;19.472;2022-11-15T10:48:19;28.65;;;10.57;;
18411;SDS011;27097;51.738;19.472;2022-11-15T10:50:51;24.38;;;10.77;;
18411;SDS011;27097;51.738;19.472;2022-11-15T10:56:07;25.17;;;12.95;;
18411;SDS011;27097;51.738;19.472;2022-11-15T10:58:39;26.02;;;11.85;;
18411;SDS011;27097;51.738;19.472;2022-11-15T11:01:10;20.63;;;11.95;;
18411;SDS011;27097;51.738;19.472;2022-11-15T11:03:39;27.65;;;12.63;;
18411;SDS011;27097;51.738;19.472;2022-11-15T11:06:09;25.48;;;12.75;;
18411;SDS011;27097;51.738;19.472;2022-11-15T11:08:38;24.65;;;12.73;;
18411;SDS011;27097;51.738;19.472;2022-11-15T11:11:06;29.63;;;13.02;;
18411;SDS011;27097;51.738;19.472;2022-11-15T11:13:34;30.90;;;13.23;;
18411;SDS011;27097;51.738;19.472;2022-11-15T11:16:16;25.00;;;13.25;;
18411;SDS011;27097;51.738;19.472;2022-11-15T11:19:04;23.48;;;12.93;;
18411;SDS011;27097;51.738;19.472;2022-11-15T11:21:45;24.05;;;14.05;;
18411;SDS011;27097;51.738;19.472;2022-11-15T11:24:18;26.20;;;13.75;;
18411;SDS011;27097;51.738;19.472;2022-11-15T11:26:57;26.17;;;14.20;;
18411;SDS011;27097;51.738;19.472;2022-11-15T11:29:43;23.67;;;13.18;;
18411;SDS011;27097;51.738;19.472;2022-11-15T11:35:36;28.83;;;13.18;;
18411;SDS011;27097;51.738;19.472;2022-11-15T11:38:24;28.60;;;12.80;;
18411;SDS011;27097;51.738;19.472;2022-11-15T11:44:31;25.25;;;14.88;;
18411;SDS011;27097;51.738;19.472;2022-11-15T11:47:07;26.95;;;15.98;;
18411;SDS011;27097;51.738;19.472;2022-11-15T11:49:38;22.52;;;14.40;;
18411;SDS011;27097;51.738;19.472;2022-11-15T11:52:12;24.95;;;14.73;;
18411;SDS011;27097;51.738;19.472;2022-11-15T11:54:46;23.92;;;14.48;;
18411;SDS011;27097;51.738;19.472;2022-11-15T11:57:22;23.38;;;14.18;;
18411;SDS011;27097;51.738;19.472;2022-11-15T12:00:00;25.05;;;14.57;;
18411;SDS011;27097;51.738;19.472;2022-11-15T12:02:30;22.60;;;14.15;;
18411;SDS011;27097;51.738;19.472;2022-11-15T12:05:03;21.25;;;13.63;;
18411;SDS011;27097;51.738;19.472;2022-11-15T12:07:38;29.75;;;13.77;;
18411;SDS011;27097;51.738;19.472;2022-11-15T12:10:11;26.73;;;14.40;;
18411;SDS011;27097;51.738;19.472;2022-11-15T12:12:47;26.23;;;14.73;;
18411;SDS011;27097;51.738;19.472;2022-11-15T12:15:22;22.25;;;14.00;;
18411;SDS011;27097;51.738;19.472;2022-11-15T12:17:51;23.95;;;13.80;;
18411;SDS011;27097;51.738;19.472;2022-11-15T12:20:21;23.42;;;14.00;;
18411;SDS011;27097;51.738;19.472;2022-11-15T12:22:54;24.20;;;13.65;;
18411;SDS011;27097;51.738;19.472;2022-11-15T12:25:33;22.45;;;13.20;;
18411;SDS011;27097;51.738;19.472;2022-11-15T12:28:07;22.67;;;13.70;;
18411;SDS011;27097;51.738;19.472;2022-11-15T12:30:42;23.65;;;14.00;;
18411;SDS011;27097;51.738;19.472;2022-11-15T12:35:58;21.02;;;13.90;;
18411;SDS011;27097;51.738;19.472;2022-11-15T12:41:23;26.17;;;13.98;;
18411;SDS011;27097;51.738;19.472;2022-11-15T12:43:51;20.23;;;13.20;;
18411;SDS011;27097;51.738;19.472;2022-11-15T12:52:09;20.10;;;12.75;;
18411;SDS011;27097;51.738;19.472;2022-11-15T12:57:53;19.90;;;12.90;;
18411;SDS011;27097;51.738;19.472;2022-11-15T13:06:09;21.35;;;13.68;;
18411;SDS011;27097;51.738;19.472;2022-11-15T13:12:47;19.58;;;12.70;;
18411;SDS011;27097;51.738;19.472;2022-11-15T13:18:29;21.33;;;12.18;;
18411;SDS011;27097;51.738;19.472;2022-11-15T13:20:58;20.58;;;13.48;;
18411;SDS011;27097;51.738;19.472;2022-11-15T13:23:26;20.15;;;12.45;;
18411;SDS011;27097;51.738;19.472;2022-11-15T13:25:56;20.13;;;12.77;;
18411;SDS011;27097;51.738;19.472;2022-11-15T13:28:33;18.27;;;11.77;;
18411;SDS011;27097;51.738;19.472;2022-11-15T13:31:13;17.67;;;12.43;;
18411;SDS011;27097;51.738;19.472;2022-11-15T13:33:47;19.80;;;12.45;;
18411;SDS011;27097;51.738;19.472;2022-11-15T13:36:15;22.65;;;12.02;;
18411;SDS011;27097;51.738;19.472;2022-11-15T13:38:45;21.30;;;13.60;;
18411;SDS011;27097;51.738;19.472;2022-11-15T13:41:22;20.40;;;12.73;;
18411;SDS011;27097;51.738;19.472;2022-11-15T13:43:51;21.25;;;13.52;;
18411;SDS011;27097;51.738;19.472;2022-11-15T13:46:21;19.83;;;12.35;;
18411;SDS011;27097;51.738;19.472;2022-11-15T13:48:53;22.90;;;12.23;;
18411;SDS011;27097;51.738;19.472;2022-11-15T13:51:23;23.42;;;14.07;;
18411;SDS011;27097;51.738;19.472;2022-11-15T13:53:56;25.05;;;13.23;;
18411;SDS011;27097;51.738;19.472;2022-11-15T13:56:25;21.40;;;12.95;;
18411;SDS011;27097;51.738;19.472;2022-11-15T13:58:53;30.00;;;16.60;;
18411;SDS011;27097;51.738;19.472;2022-11-15T14:01:22;22.42;;;13.88;;
18411;SDS011;27097;51.738;19.472;2022-11-15T14:03:54;24.00;;;14.32;;
18411;SDS011;27097;51.738;19.472;2022-11-15T14:06:24;25.33;;;13.80;;
18411;SDS011;27097;51.738;19.472;2022-11-15T14:12:26;28.33;;;13.85;;
18411;SDS011;27097;51.738;19.472;2022-11-15T14:14:55;27.35;;;13.70;;
18411;SDS011;27097;51.738;19.472;2022-11-15T14:17:35;29.73;;;13.03;;
18411;SDS011;27097;51.738;19.472;2022-11-15T14:22:57;24.25;;;13.18;;
18411;SDS011;27097;51.738;19.472;2022-11-15T14:25:26;28.13;;;14.18;;
18411;SDS011;27097;51.738;19.472;2022-11-15T14:28:09;29.20;;;13.23;;
18411;SDS011;27097;51.738;19.472;2022-11-15T14:30:54;28.42;;;14.02;;
18411;SDS011;27097;51.738;19.472;2022-11-15T14:33:25;23.00;;;12.48;;
18411;SDS011;27097;51.738;19.472;2022-11-15T14:35:54;24.38;;;12.95;;
18411;SDS011;27097;51.738;19.472;2022-11-15T14:38:23;30.15;;;13.10;;
18411;SDS011;27097;51.738;19.472;2022-11-15T14:40:50;24.77;;;13.68;;
18411;SDS011;27097;51.738;19.472;2022-11-15T14:43:18;26.75;;;13.25;;
18411;SDS011;27097;51.738;19.472;2022-11-15T14:45:45;27.65;;;14.48;;
18411;SDS011;27097;51.738;19.472;2022-11-15T14:48:12;25.42;;;14.50;;
18411;SDS011;27097;51.738;19.472;2022-11-15T14:50:41;28.20;;;14.70;;
18411;SDS011;27097;51.738;19.472;2022-11-15T14:53:11;24.33;;;14.18;;
18411;SDS011;27097;51.738;19.472;2022-11-15T14:55:39;27.70;;;14.52;;
18411;SDS011;27097;51.738;19.472;2022-11-15T14:58:06;30.80;;;14.25;;
18411;SDS011;27097;51.738;19.472;2022-11-15T15:00:34;22.60;;;14.30;;
18411;SDS011;27097;51.738;19.472;2022-11-15T15:03:02;29.80;;;14.98;;
18411;SDS011;27097;51.738;19.472;2022-11-15T15:05:30;26.13;;;14.23;;
18411;SDS011;27097;51.738;19.472;2022-11-15T15:08:00;30.15;;;14.20;;
18411;SDS011;27097;51.738;19.472;2022-11-15T15:10:30;38.70;;;14.52;;
18411;SDS011;27097;51.738;19.472;2022-11-15T15:12:58;27.05;;;13.52;;